createdAt,value
2022-07-31T00:04:55.999Z,24.58
2022-07-31T00:09:59.434Z,24.54
2022-07-31T00:15:08.255Z,24.51
2022-07-31T00:20:14.042Z,24.51
2022-07-31T00:25:18.978Z,24.52
2022-07-31T00:30:22.809Z,24.54
2022-07-31T00:35:26.938Z,24.55
2022-07-31T00:40:30.517Z,24.54
2022-07-31T00:45:34.082Z,24.54
2022-07-31T00:50:41.165Z,24.55
2022-07-31T00:55:51.937Z,24.53
2022-07-31T01:00:55.902Z,24.49
2022-07-31T01:05:59.389Z,24.49
2022-07-31T01:11:14.199Z,24.53
2022-07-31T01:16:19.467Z,24.54
2022-07-31T01:21:53.311Z,24.57
2022-07-31T01:27:06.521Z,24.56
2022-07-31T01:32:30.036Z,24.57
2022-07-31T01:37:45.637Z,24.56
2022-07-31T01:42:55.689Z,24.56
2022-07-31T01:48:01.719Z,24.53
2022-07-31T01:53:15.453Z,24.46
2022-07-31T01:58:21.526Z,24.41
2022-07-31T02:03:44.449Z,24.37
2022-07-31T02:08:55.260Z,24.35
2022-07-31T02:14:01.476Z,24.33
2022-07-31T02:19:08.981Z,24.32
2022-07-31T02:24:12.412Z,24.29
2022-07-31T02:29:20.352Z,24.26
2022-07-31T02:34:29.112Z,24.22
2022-07-31T02:39:35.775Z,24.21
2022-07-31T02:44:40.377Z,24.17
2022-07-31T02:49:45.343Z,24.12
2022-07-31T02:54:51.025Z,24.07
2022-07-31T02:59:54.458Z,24.05
2022-07-31T03:04:59.444Z,24.06
2022-07-31T03:10:03.066Z,24.08
2022-07-31T03:15:31.842Z,24.05
2022-07-31T03:20:35.653Z,24.04
2022-07-31T03:25:41.514Z,24.01
2022-07-31T03:30:55.155Z,24.00
2022-07-31T03:36:03.358Z,24.01
2022-07-31T03:41:07.060Z,24.04
2022-07-31T03:46:11.527Z,24.08
2022-07-31T03:51:16.024Z,24.11
2022-07-31T03:56:20.482Z,24.16
2022-07-31T04:01:24.412Z,24.20
2022-07-31T04:06:32.580Z,24.25
2022-07-31T04:11:36.203Z,24.32
2022-07-31T04:16:41.889Z,24.38
2022-07-31T04:21:45.657Z,24.47
2022-07-31T04:26:50.263Z,24.56
2022-07-31T04:31:55.662Z,24.65
2022-07-31T04:37:06.374Z,24.75
2022-07-31T04:42:11.591Z,24.85
2022-07-31T04:47:15.554Z,24.97
2022-07-31T04:52:23.094Z,25.13
2022-07-31T04:57:27.342Z,25.26
2022-07-31T05:02:30.986Z,25.41
2022-07-31T05:07:34.512Z,25.63
2022-07-31T05:12:42.741Z,25.75
2022-07-31T05:17:46.433Z,25.82
2022-07-31T05:23:09.322Z,25.94
2022-07-31T05:28:40.053Z,25.99
2022-07-31T05:33:46.748Z,26.11
2022-07-31T05:38:50.627Z,27.42
2022-07-31T05:44:26.561Z,27.74
2022-07-31T05:49:30.232Z,27.99
2022-07-31T05:54:37.457Z,28.23
2022-07-31T06:00:05.478Z,28.35
2022-07-31T06:05:20.696Z,28.30
2022-07-31T06:10:23.984Z,27.92
2022-07-31T06:15:27.476Z,27.86
2022-07-31T06:20:31.296Z,28.10
2022-07-31T06:25:39.174Z,28.73
2022-07-31T06:30:43.160Z,31.13
2022-07-31T06:35:46.692Z,33.64
2022-07-31T06:41:17.053Z,34.85
2022-07-31T06:46:30.883Z,34.94
2022-07-31T06:52:00.718Z,36.57
2022-07-31T06:57:09.357Z,36.80
2022-07-31T07:02:12.900Z,36.77
2022-07-31T07:07:16.270Z,36.03
2022-07-31T07:12:23.479Z,35.46
2022-07-31T07:17:31.296Z,35.75
2022-07-31T07:22:36.252Z,36.03
2022-07-31T07:27:39.978Z,36.53
2022-07-31T07:32:43.429Z,37.00
2022-07-31T07:37:47.048Z,37.00
2022-07-31T07:42:51.740Z,36.16
2022-07-31T07:48:06.381Z,35.80
2022-07-31T07:53:35.400Z,35.12
2022-07-31T07:58:50.960Z,34.76
2022-07-31T08:04:13.241Z,34.28
2022-07-31T08:09:18.208Z,33.91
2022-07-31T08:14:41.392Z,33.38
2022-07-31T08:20:03.828Z,32.65
2022-07-31T08:25:11.295Z,32.28
2022-07-31T08:30:21.001Z,32.37
2022-07-31T08:35:25.256Z,32.14
2022-07-31T08:40:30.051Z,32.34
2022-07-31T08:45:40.204Z,32.55
2022-07-31T08:51:06.665Z,32.56
2022-07-31T08:56:42.431Z,32.58
2022-07-31T09:01:47.554Z,32.43
2022-07-31T09:06:52.598Z,32.37
2022-07-31T09:11:57.696Z,32.39
2022-07-31T09:17:32.134Z,32.20
2022-07-31T09:22:36.459Z,32.03
2022-07-31T09:27:41.037Z,31.96
2022-07-31T09:32:44.694Z,31.80
2022-07-31T09:37:53.891Z,31.63
2022-07-31T09:43:32.729Z,31.48
2022-07-31T09:48:37.757Z,31.39
2022-07-31T09:53:49.943Z,31.39
2022-07-31T09:59:17.026Z,31.35
2022-07-31T10:04:22.378Z,31.15
2022-07-31T10:09:28.877Z,31.03
2022-07-31T10:15:07.463Z,31.03
2022-07-31T10:20:17.536Z,31.03
2022-07-31T10:25:53.899Z,30.98
2022-07-31T10:30:59.725Z,30.98
2022-07-31T10:36:11.948Z,30.90
2022-07-31T10:41:53.878Z,30.83
2022-07-31T10:46:58.453Z,30.85
2022-07-31T10:52:09.287Z,30.87
2022-07-31T10:57:32.830Z,30.84
2022-07-31T11:03:21.292Z,30.76
2022-07-31T11:08:47.441Z,30.71
2022-07-31T11:14:10.798Z,30.59
2022-07-31T11:19:22.389Z,30.46
2022-07-31T11:24:28.361Z,30.42
2022-07-31T11:29:59.557Z,30.32
2022-07-31T11:34:57.860Z,30.28
2022-07-31T11:40:01.497Z,30.25
2022-07-31T11:45:11.330Z,30.16
2022-07-31T11:50:23.504Z,30.05
2022-07-31T11:55:27.043Z,29.91
2022-07-31T12:00:30.789Z,29.76
2022-07-31T12:05:44.157Z,29.66
2022-07-31T12:10:48.509Z,29.57
2022-07-31T12:15:59.629Z,29.50
2022-07-31T12:21:05.853Z,29.51
2022-07-31T12:26:12.264Z,29.50
2022-07-31T12:31:15.694Z,29.36
2022-07-31T12:36:19.491Z,29.24
2022-07-31T12:41:23.256Z,29.21
2022-07-31T12:46:35.868Z,29.15
2022-07-31T12:51:47.329Z,29.10
2022-07-31T12:56:53.161Z,29.06
2022-07-31T13:01:56.840Z,29.07
2022-07-31T13:07:01.786Z,29.09
2022-07-31T13:12:05.962Z,29.04
2022-07-31T13:17:09.401Z,28.96
2022-07-31T13:22:13.445Z,28.96
2022-07-31T13:27:17.253Z,28.91
2022-07-31T13:32:20.978Z,28.90
2022-07-31T13:37:24.382Z,28.87
2022-07-31T13:42:29.743Z,28.79
2022-07-31T13:47:50.976Z,28.71
2022-07-31T13:52:55.352Z,28.69
2022-07-31T13:57:59.412Z,28.68
2022-07-31T14:03:05.325Z,28.68
2022-07-31T14:08:33.093Z,28.60
2022-07-31T14:13:32.429Z,28.65
2022-07-31T14:18:35.873Z,28.63
2022-07-31T14:23:40.861Z,28.59
2022-07-31T14:28:44.726Z,28.57
2022-07-31T14:33:49.065Z,28.53
2022-07-31T14:38:52.830Z,28.54
2022-07-31T14:43:56.215Z,28.46
2022-07-31T14:48:59.761Z,28.41
2022-07-31T14:54:03.024Z,28.20
2022-07-31T14:59:06.464Z,28.15
2022-07-31T15:04:10.078Z,28.12
2022-07-31T15:09:16.258Z,28.06
2022-07-31T15:14:22.184Z,27.97
2022-07-31T15:19:25.801Z,27.89
2022-07-31T15:24:29.446Z,27.77
2022-07-31T15:30:03.692Z,27.64
2022-07-31T15:34:56.315Z,27.61
2022-07-31T15:40:02.272Z,27.57
2022-07-31T15:45:17.946Z,27.52
2022-07-31T15:50:21.504Z,27.39
2022-07-31T15:55:25.109Z,27.29
2022-07-31T16:00:28.583Z,27.23
2022-07-31T16:05:36.566Z,27.12
2022-07-31T16:10:41.257Z,26.99
2022-07-31T16:15:44.867Z,26.87
2022-07-31T16:20:48.647Z,26.77
2022-07-31T16:25:52.266Z,26.68
2022-07-31T16:30:55.978Z,26.62
2022-07-31T16:35:59.476Z,26.53
2022-07-31T16:41:03.667Z,26.43
2022-07-31T16:46:07.141Z,26.32
2022-07-31T16:51:10.864Z,26.25
2022-07-31T16:56:15.147Z,26.17
2022-07-31T17:01:57.474Z,26.08
2022-07-31T17:06:43.099Z,26.00
2022-07-31T17:11:52.104Z,25.95
2022-07-31T17:16:56.323Z,25.88
2022-07-31T17:22:00.340Z,25.85
2022-07-31T17:27:09.115Z,25.80
2022-07-31T17:32:13.103Z,25.75
2022-07-31T17:37:16.855Z,25.69
2022-07-31T17:42:21.605Z,25.65
2022-07-31T17:47:27.473Z,25.62
2022-07-31T17:52:31.010Z,25.59
2022-07-31T17:57:35.117Z,25.55
2022-07-31T18:02:38.627Z,25.50
2022-07-31T18:07:42.116Z,25.48
2022-07-31T18:12:57.859Z,25.45
2022-07-31T18:18:01.708Z,25.44
2022-07-31T18:23:05.113Z,25.41
2022-07-31T18:28:13.570Z,25.42
2022-07-31T18:33:17.008Z,25.42
2022-07-31T18:38:20.578Z,25.39
2022-07-31T18:43:24.164Z,25.35
2022-07-31T18:48:28.242Z,25.32
2022-07-31T18:53:32.854Z,25.32
2022-07-31T18:58:36.211Z,25.30
2022-07-31T19:03:39.536Z,25.25
2022-07-31T19:08:43.656Z,25.24
2022-07-31T19:13:47.348Z,25.20
2022-07-31T19:18:50.843Z,25.21
2022-07-31T19:23:54.213Z,25.19
2022-07-31T19:28:57.464Z,25.19
2022-07-31T19:34:01.020Z,25.17
2022-07-31T19:39:06.071Z,25.15
2022-07-31T19:44:10.237Z,25.12
2022-07-31T19:49:15.496Z,25.08
2022-07-31T19:54:19.938Z,25.07
2022-07-31T19:59:23.099Z,25.06
2022-07-31T20:04:26.397Z,25.09
2022-07-31T20:09:29.959Z,25.09
2022-07-31T20:14:33.340Z,25.07
2022-07-31T20:19:37.029Z,25.05
2022-07-31T20:25:00.397Z,24.99
2022-07-31T20:30:11.997Z,24.96
2022-07-31T20:35:45.583Z,24.90
2022-07-31T20:40:39.092Z,24.86
2022-07-31T20:45:46.248Z,24.83
2022-07-31T20:50:49.934Z,24.80
2022-07-31T20:55:53.772Z,24.76
2022-07-31T21:00:57.436Z,24.74
2022-07-31T21:06:01.593Z,24.71
2022-07-31T21:11:05.693Z,24.67
2022-07-31T21:16:09.820Z,24.63
2022-07-31T21:21:13.230Z,24.60
2022-07-31T21:26:17.533Z,24.57
2022-07-31T21:31:21.373Z,24.51
2022-07-31T21:36:25.470Z,24.45
2022-07-31T21:41:29.111Z,24.40
2022-07-31T21:46:38.737Z,24.37
2022-07-31T21:51:46.104Z,24.32
2022-07-31T21:56:49.699Z,24.24
2022-07-31T22:01:57.775Z,24.18
2022-07-31T22:07:05.258Z,24.14
2022-07-31T22:12:09.504Z,24.14
2022-07-31T22:17:13.300Z,24.13
2022-07-31T22:22:17.814Z,24.10
2022-07-31T22:27:22.149Z,24.08
2022-07-31T22:32:26.894Z,24.09
2022-07-31T22:37:30.433Z,24.07
2022-07-31T22:42:34.193Z,24.09
2022-07-31T22:47:38.263Z,24.04
2022-07-31T22:52:42.387Z,24.03
2022-07-31T22:57:45.709Z,24.03
2022-07-31T23:02:49.654Z,24.02
2022-07-31T23:07:53.563Z,24.04
2022-07-31T23:12:57.672Z,24.09
2022-07-31T23:18:01.097Z,24.10
2022-07-31T23:23:04.613Z,24.11
2022-07-31T23:28:08.539Z,24.10
2022-07-31T23:33:12.277Z,24.10
2022-07-31T23:38:15.559Z,24.11
2022-07-31T23:43:20.990Z,24.11
2022-07-31T23:48:24.616Z,24.11
2022-07-31T23:53:33.513Z,24.12
2022-07-31T23:58:37.385Z,24.11
